createdAt,value
2022-10-25T00:01:18.193Z,10.90
2022-10-25T00:03:46.408Z,11.00
2022-10-25T00:06:17.615Z,10.90
2022-10-25T00:08:45.531Z,10.70
2022-10-25T00:11:18.993Z,10.70
2022-10-25T00:13:46.929Z,10.70
2022-10-25T00:16:15.982Z,10.70
2022-10-25T00:18:45.493Z,10.60
2022-10-25T00:21:14.745Z,10.60
2022-10-25T00:23:42.708Z,10.60
2022-10-25T00:26:11.651Z,10.60
2022-10-25T00:28:40.051Z,10.60
2022-10-25T00:31:10.063Z,10.50
2022-10-25T00:33:39.188Z,10.60
2022-10-25T00:36:09.248Z,10.40
2022-10-25T00:38:39.304Z,10.50
2022-10-25T00:41:08.232Z,10.40
2022-10-25T00:43:38.799Z,10.40
2022-10-25T00:46:13.604Z,10.30
2022-10-25T00:48:43.318Z,10.50
2022-10-25T00:51:11.536Z,10.40
2022-10-25T00:53:41.038Z,10.50
2022-10-25T00:56:18.031Z,10.60
2022-10-25T00:58:50.223Z,10.50
2022-10-25T01:01:18.972Z,10.40
2022-10-25T01:03:50.376Z,10.50
2022-10-25T01:06:22.778Z,10.50
2022-10-25T01:08:53.846Z,10.60
2022-10-25T01:11:22.213Z,10.60
2022-10-25T01:13:50.896Z,10.60
2022-10-25T01:16:27.490Z,10.60
2022-10-25T01:19:04.193Z,10.60
2022-10-25T01:21:41.029Z,10.60
2022-10-25T01:24:29.687Z,10.70
2022-10-25T01:27:21.691Z,10.80
2022-10-25T01:30:05.999Z,10.90
2022-10-25T01:32:43.331Z,10.90
2022-10-25T01:35:21.678Z,11.00
2022-10-25T01:37:58.618Z,11.10
2022-10-25T01:40:34.432Z,11.20
2022-10-25T01:43:06.763Z,11.20
2022-10-25T01:45:41.362Z,11.10
2022-10-25T01:48:15.881Z,11.20
2022-10-25T01:50:47.203Z,11.10
2022-10-25T01:53:15.778Z,11.10
2022-10-25T01:55:51.534Z,11.10
2022-10-25T01:58:34.909Z,11.10
2022-10-25T02:01:11.667Z,11.10
2022-10-25T02:03:49.946Z,11.00
2022-10-25T02:06:28.664Z,11.00
2022-10-25T02:09:03.270Z,11.10
2022-10-25T02:11:32.617Z,11.10
2022-10-25T02:14:08.216Z,11.10
2022-10-25T02:16:41.598Z,11.10
2022-10-25T02:19:14.635Z,11.00
2022-10-25T02:21:45.023Z,11.00
2022-10-25T02:24:19.820Z,10.90
2022-10-25T02:26:50.267Z,10.90
2022-10-25T02:29:20.895Z,10.80
2022-10-25T02:31:49.079Z,10.70
2022-10-25T02:34:19.190Z,10.60
2022-10-25T02:36:50.237Z,10.60
2022-10-25T02:39:18.943Z,10.50
2022-10-25T02:45:27.775Z,10.40
2022-10-25T02:47:55.735Z,10.40
2022-10-25T02:50:24.942Z,10.30
2022-10-25T02:52:52.777Z,10.40
2022-10-25T02:55:20.658Z,10.40
2022-10-25T02:57:48.534Z,10.30
2022-10-25T03:00:17.224Z,10.40
2022-10-25T03:02:46.443Z,10.20
2022-10-25T03:05:14.549Z,10.20
2022-10-25T03:07:43.790Z,10.20
2022-10-25T03:10:11.650Z,10.30
2022-10-25T03:12:39.588Z,10.30
2022-10-25T03:15:08.803Z,10.30
2022-10-25T03:17:36.749Z,10.40
2022-10-25T03:20:05.235Z,10.40
2022-10-25T03:22:33.175Z,10.30
2022-10-25T03:25:02.571Z,10.40
2022-10-25T03:27:30.492Z,10.40
2022-10-25T03:29:58.417Z,10.40
2022-10-25T03:32:26.296Z,10.40
2022-10-25T03:34:54.134Z,10.40
2022-10-25T03:37:22.013Z,10.40
2022-10-25T03:39:49.904Z,10.30
2022-10-25T03:42:19.120Z,10.30
2022-10-25T03:44:47.016Z,10.20
2022-10-25T03:47:14.844Z,10.20
2022-10-25T03:49:42.865Z,10.20
2022-10-25T03:52:11.217Z,10.10
2022-10-25T03:54:39.330Z,10.10
2022-10-25T03:57:07.268Z,10.20
2022-10-25T03:59:36.592Z,10.20
2022-10-25T04:02:04.712Z,10.20
2022-10-25T04:04:32.718Z,10.10
2022-10-25T04:07:00.608Z,10.00
2022-10-25T04:09:28.517Z,10.10
2022-10-25T04:11:59.819Z,10.10
2022-10-25T04:14:27.694Z,10.20
2022-10-25T04:16:56.924Z,10.30
2022-10-25T04:19:24.756Z,10.30
2022-10-25T04:21:52.773Z,10.20
2022-10-25T04:24:20.659Z,10.10
2022-10-25T04:26:48.529Z,10.10
2022-10-25T04:29:17.429Z,10.10
2022-10-25T04:31:45.298Z,10.20
2022-10-25T04:34:14.776Z,10.20
2022-10-25T04:36:47.417Z,10.10
2022-10-25T04:39:15.362Z,10.20
2022-10-25T04:41:43.300Z,10.10
2022-10-25T04:44:11.515Z,10.00
2022-10-25T04:46:39.361Z,10.10
2022-10-25T04:49:07.289Z,10.00
2022-10-25T04:51:36.528Z,10.00
2022-10-25T04:54:06.217Z,9.80
2022-10-25T04:56:34.237Z,9.90
2022-10-25T04:59:02.592Z,9.90
2022-10-25T05:01:30.654Z,9.90
2022-10-25T05:03:58.873Z,9.90
2022-10-25T05:06:28.325Z,9.90
2022-10-25T05:08:57.556Z,9.80
2022-10-25T05:11:26.575Z,9.80
2022-10-25T05:13:54.499Z,9.70
2022-10-25T05:16:25.886Z,9.60
2022-10-25T05:18:55.804Z,9.60
2022-10-25T05:24:02.137Z,9.50
2022-10-25T05:26:31.608Z,9.50
2022-10-25T05:28:59.922Z,9.50
2022-10-25T05:31:29.947Z,9.50
2022-10-25T05:34:01.245Z,9.50
2022-10-25T05:36:29.943Z,9.50
2022-10-25T05:38:59.253Z,9.50
2022-10-25T05:41:30.832Z,9.50
2022-10-25T05:44:01.375Z,9.60
2022-10-25T05:46:29.321Z,9.70
2022-10-25T05:49:00.030Z,9.80
2022-10-25T05:51:36.850Z,9.90
2022-10-25T05:54:06.847Z,9.90
2022-10-25T05:56:36.637Z,9.90
2022-10-25T05:59:07.592Z,9.90
2022-10-25T06:01:36.894Z,9.90
2022-10-25T06:04:05.451Z,10.00
2022-10-25T06:06:33.449Z,10.10
2022-10-25T06:09:03.535Z,10.20
2022-10-25T06:11:32.167Z,10.30
2022-10-25T06:14:01.457Z,10.30
2022-10-25T06:16:31.427Z,10.30
2022-10-25T06:18:59.380Z,10.40
2022-10-25T06:21:28.977Z,10.40
2022-10-25T06:23:57.651Z,10.40
2022-10-25T06:26:29.817Z,10.50
2022-10-25T06:28:59.605Z,10.60
2022-10-25T06:31:29.285Z,10.60
2022-10-25T06:33:57.233Z,10.60
2022-10-25T06:36:27.112Z,10.70
2022-10-25T06:38:55.640Z,10.80
2022-10-25T06:41:25.133Z,10.90
2022-10-25T06:43:53.284Z,11.00
2022-10-25T06:46:23.672Z,11.10
2022-10-25T06:48:54.935Z,11.10
2022-10-25T06:51:23.504Z,11.20
2022-10-25T06:53:55.888Z,11.40
2022-10-25T06:56:24.091Z,11.40
2022-10-25T06:58:52.392Z,11.50
2022-10-25T07:01:25.333Z,11.60
2022-10-25T07:03:55.298Z,11.60
2022-10-25T07:06:25.181Z,11.60
2022-10-25T07:08:57.078Z,11.70
2022-10-25T07:11:26.467Z,11.80
2022-10-25T07:13:54.366Z,12.00
2022-10-25T07:16:23.001Z,12.10
2022-10-25T07:18:50.977Z,12.10
2022-10-25T07:21:24.034Z,12.20
2022-10-25T07:23:52.179Z,12.20
2022-10-25T07:26:25.465Z,12.20
2022-10-25T07:28:56.057Z,12.10
2022-10-25T07:31:26.127Z,12.10
2022-10-25T07:33:59.035Z,12.10
2022-10-25T07:36:29.013Z,12.20
2022-10-25T07:38:57.218Z,12.30
2022-10-25T07:41:25.461Z,12.30
2022-10-25T07:43:53.499Z,12.40
2022-10-25T07:46:21.370Z,12.40
2022-10-25T07:48:55.187Z,12.40
2022-10-25T07:51:23.156Z,12.50
2022-10-25T07:53:54.402Z,12.60
2022-10-25T07:56:25.134Z,12.50
2022-10-25T07:58:53.625Z,12.60
2022-10-25T08:01:23.426Z,12.70
2022-10-25T08:03:51.771Z,12.70
2022-10-25T08:06:20.909Z,12.90
2022-10-25T08:08:49.181Z,13.00
2022-10-25T08:11:18.780Z,13.10
2022-10-25T08:13:50.401Z,13.10
2022-10-25T08:16:18.927Z,13.10
2022-10-25T08:18:46.903Z,13.10
2022-10-25T08:21:14.826Z,13.20
2022-10-25T08:23:57.683Z,13.20
2022-10-25T08:26:30.161Z,13.30
2022-10-25T08:28:59.844Z,13.40
2022-10-25T08:31:27.777Z,13.50
2022-10-25T08:33:55.614Z,13.50
2022-10-25T08:36:24.216Z,13.60
2022-10-25T08:38:52.095Z,13.70
2022-10-25T08:41:24.824Z,13.80
2022-10-25T08:44:16.706Z,13.80
2022-10-25T08:46:59.124Z,14.00
2022-10-25T08:49:34.564Z,14.20
2022-10-25T08:52:06.447Z,14.20
2022-10-25T08:54:38.650Z,14.20
2022-10-25T08:57:15.480Z,14.40
2022-10-25T08:59:50.195Z,14.60
2022-10-25T09:02:23.257Z,14.60
2022-10-25T09:04:51.296Z,14.50
2022-10-25T09:07:56.399Z,14.50
2022-10-25T09:10:35.163Z,14.60
2022-10-25T09:13:11.302Z,14.70
2022-10-25T09:15:54.749Z,14.60
2022-10-25T09:18:36.865Z,14.60
2022-10-25T09:21:14.907Z,14.60
2022-10-25T09:23:59.771Z,14.60
2022-10-25T09:26:40.440Z,14.70
2022-10-25T09:29:14.973Z,14.80
2022-10-25T09:31:49.042Z,14.90
2022-10-25T09:34:19.808Z,15.10
2022-10-25T09:36:50.283Z,15.30
2022-10-25T09:39:22.142Z,15.30
2022-10-25T09:41:54.283Z,15.30
2022-10-25T09:44:32.893Z,15.30
2022-10-25T09:47:12.650Z,15.40
2022-10-25T09:49:50.240Z,15.40
2022-10-25T09:52:25.730Z,15.40
2022-10-25T09:54:56.150Z,15.30
2022-10-25T09:57:24.453Z,15.20
2022-10-25T09:59:53.066Z,15.10
2022-10-25T10:02:25.778Z,15.20
2022-10-25T10:04:54.857Z,15.10
2022-10-25T10:07:29.161Z,15.20
2022-10-25T10:10:01.271Z,15.30
2022-10-25T10:12:34.477Z,15.30
2022-10-25T10:15:07.685Z,15.30
2022-10-25T10:17:38.170Z,15.30
2022-10-25T10:20:10.178Z,15.30
2022-10-25T10:22:44.771Z,15.40
2022-10-25T10:25:22.629Z,15.40
2022-10-25T10:27:53.063Z,15.50
2022-10-25T10:30:25.271Z,15.70
2022-10-25T10:33:00.137Z,15.70
2022-10-25T10:35:31.477Z,15.70
2022-10-25T10:38:15.768Z,15.60
2022-10-25T10:40:45.627Z,15.70
2022-10-25T10:43:32.332Z,15.80
2022-10-25T10:46:04.571Z,15.90
2022-10-25T10:48:42.952Z,16.00
2022-10-25T10:51:31.678Z,16.00
2022-10-25T10:54:10.747Z,16.10
2022-10-25T10:56:38.658Z,16.10
2022-10-25T10:59:06.600Z,16.10
2022-10-25T11:01:34.859Z,16.00
2022-10-25T11:04:04.267Z,15.70
2022-10-25T11:06:33.874Z,15.60
2022-10-25T11:09:17.852Z,15.50
2022-10-25T11:11:46.602Z,15.50
2022-10-25T11:14:16.581Z,15.30
2022-10-25T11:16:54.214Z,15.20
2022-10-25T11:19:47.391Z,15.20
2022-10-25T11:22:32.938Z,15.30
2022-10-25T11:25:25.709Z,15.40
2022-10-25T11:28:07.098Z,15.80
2022-10-25T11:30:42.705Z,16.30
2022-10-25T11:33:33.856Z,16.80
2022-10-25T11:36:26.158Z,16.90
2022-10-25T11:39:07.586Z,16.80
2022-10-25T11:41:45.674Z,16.90
2022-10-25T11:44:40.656Z,16.90
2022-10-25T11:47:17.644Z,16.80
2022-10-25T11:49:57.258Z,16.60
2022-10-25T11:52:51.006Z,16.60
2022-10-25T11:55:32.306Z,16.60
2022-10-25T11:58:08.830Z,16.60
2022-10-25T12:00:47.330Z,16.60
2022-10-25T12:03:48.106Z,16.70
2022-10-25T12:06:23.840Z,16.70
2022-10-25T12:09:04.444Z,16.70
2022-10-25T12:11:34.505Z,16.80
2022-10-25T12:14:06.848Z,16.70
2022-10-25T12:16:38.266Z,16.70
2022-10-25T12:19:13.968Z,16.80
2022-10-25T12:21:45.822Z,16.80
2022-10-25T12:24:21.240Z,16.70
2022-10-25T12:26:52.595Z,16.80
2022-10-25T12:29:25.264Z,16.90
2022-10-25T12:31:57.884Z,16.90
2022-10-25T12:34:33.726Z,16.90
2022-10-25T12:37:05.640Z,17.00
2022-10-25T12:39:42.502Z,16.90
2022-10-25T12:42:17.344Z,16.80
2022-10-25T12:45:05.660Z,16.60
2022-10-25T12:47:49.659Z,16.30
2022-10-25T12:50:40.447Z,16.20
2022-10-25T12:53:45.891Z,16.10
2022-10-25T12:56:25.088Z,16.20
2022-10-25T12:59:04.740Z,16.50
2022-10-25T13:01:49.577Z,16.80
2022-10-25T13:04:52.232Z,16.90
2022-10-25T13:07:22.074Z,16.80
2022-10-25T13:09:51.043Z,16.60
2022-10-25T13:12:30.427Z,16.60
2022-10-25T13:15:00.509Z,16.60
2022-10-25T13:18:04.260Z,16.60
2022-10-25T13:20:52.163Z,16.70
2022-10-25T13:24:00.537Z,16.70
2022-10-25T13:26:32.046Z,16.70
2022-10-25T13:29:03.443Z,16.90
2022-10-25T13:31:48.112Z,17.10
2022-10-25T13:34:30.142Z,17.10
2022-10-25T13:36:59.297Z,17.30
2022-10-25T13:39:31.507Z,17.50
2022-10-25T13:42:10.803Z,17.70
2022-10-25T13:44:56.466Z,17.70
2022-10-25T13:47:35.821Z,17.70
2022-10-25T13:50:14.032Z,17.70
2022-10-25T13:52:49.602Z,17.90
2022-10-25T13:55:21.454Z,17.80
2022-10-25T13:57:52.224Z,17.70
2022-10-25T14:00:38.153Z,17.60
2022-10-25T14:03:24.413Z,17.60
2022-10-25T14:06:17.640Z,17.70
2022-10-25T14:08:54.314Z,17.70
2022-10-25T14:11:27.843Z,17.40
2022-10-25T14:14:02.429Z,17.30
2022-10-25T14:16:34.598Z,17.20
2022-10-25T14:19:06.919Z,17.10
2022-10-25T14:21:35.136Z,17.00
2022-10-25T14:24:08.429Z,17.00
2022-10-25T14:26:36.665Z,17.00
2022-10-25T14:29:15.223Z,17.10
2022-10-25T14:31:44.504Z,17.10
2022-10-25T14:34:20.614Z,17.00
2022-10-25T14:36:53.344Z,17.10
2022-10-25T14:39:24.028Z,17.00
2022-10-25T14:41:53.363Z,17.00
2022-10-25T14:44:25.194Z,16.90
2022-10-25T14:46:54.797Z,17.00
2022-10-25T14:49:23.691Z,17.00
2022-10-25T14:51:55.476Z,17.00
2022-10-25T14:54:30.423Z,17.00
2022-10-25T14:57:00.474Z,17.00
2022-10-25T14:59:32.417Z,17.00
2022-10-25T15:02:05.415Z,16.80
2022-10-25T15:04:36.641Z,16.80
2022-10-25T15:07:04.602Z,16.70
2022-10-25T15:09:49.004Z,16.50
2022-10-25T15:12:19.872Z,16.50
2022-10-25T15:14:48.356Z,16.60
2022-10-25T15:17:20.756Z,16.50
2022-10-25T15:19:59.417Z,16.50
2022-10-25T15:22:29.844Z,16.50
2022-10-25T15:24:58.654Z,16.60
2022-10-25T15:27:32.077Z,16.60
2022-10-25T15:30:59.885Z,16.50
2022-10-25T15:37:04.875Z,16.50
2022-10-25T15:39:32.899Z,16.50
2022-10-25T15:42:00.902Z,16.40
2022-10-25T15:44:35.073Z,16.30
2022-10-25T15:47:03.840Z,16.30
2022-10-25T15:52:06.409Z,16.10
2022-10-25T15:54:34.640Z,16.00
2022-10-25T15:57:03.556Z,15.90
2022-10-25T15:59:31.415Z,15.70
2022-10-25T16:01:59.622Z,15.70
2022-10-25T16:04:27.628Z,15.60
2022-10-25T16:06:55.484Z,15.60
2022-10-25T16:09:24.789Z,15.50
2022-10-25T16:11:55.410Z,15.40
2022-10-25T16:14:26.386Z,15.30
2022-10-25T16:16:54.364Z,15.30
2022-10-25T16:19:22.544Z,15.30
2022-10-25T16:21:50.708Z,15.20
2022-10-25T16:24:19.578Z,15.20
2022-10-25T16:26:51.185Z,15.10
2022-10-25T16:29:20.920Z,15.00
2022-10-25T16:31:49.103Z,14.90
2022-10-25T16:34:19.373Z,14.80
2022-10-25T16:36:48.576Z,14.70
2022-10-25T16:39:18.492Z,14.40
2022-10-25T16:41:49.161Z,14.40
2022-10-25T16:44:19.861Z,14.10
2022-10-25T16:46:47.917Z,13.90
2022-10-25T16:49:15.986Z,13.80
2022-10-25T16:51:44.201Z,13.90
2022-10-25T16:54:12.731Z,13.70
2022-10-25T16:56:40.687Z,13.50
2022-10-25T16:59:10.096Z,13.70
2022-10-25T17:01:41.203Z,13.70
2022-10-25T17:04:11.492Z,13.70
2022-10-25T17:06:41.664Z,13.70
2022-10-25T17:09:10.802Z,13.50
2022-10-25T17:11:38.851Z,13.40
2022-10-25T17:14:11.713Z,13.40
2022-10-25T17:16:44.228Z,13.40
2022-10-25T17:19:12.958Z,13.30
2022-10-25T17:21:41.172Z,13.10
2022-10-25T17:24:09.782Z,13.10
2022-10-25T17:26:38.295Z,13.10
2022-10-25T17:29:06.405Z,13.00
2022-10-25T17:31:34.463Z,13.00
2022-10-25T17:34:04.635Z,12.90
2022-10-25T17:36:33.015Z,12.90
2022-10-25T17:39:02.071Z,12.90
2022-10-25T17:41:30.041Z,12.80
2022-10-25T17:43:58.037Z,12.80
2022-10-25T17:46:29.013Z,12.80
2022-10-25T17:49:03.039Z,12.70
2022-10-25T17:51:33.177Z,12.80
2022-10-25T17:54:01.312Z,12.70
2022-10-25T17:56:29.460Z,12.50
2022-10-25T17:58:58.392Z,12.30
2022-10-25T18:01:28.289Z,12.30
2022-10-25T18:03:56.697Z,12.30
2022-10-25T18:06:26.365Z,12.40
2022-10-25T18:08:57.108Z,12.40
2022-10-25T18:11:27.039Z,12.30
2022-10-25T18:13:57.262Z,12.40
2022-10-25T18:16:26.881Z,12.20
2022-10-25T18:18:56.539Z,12.20
2022-10-25T18:21:25.321Z,12.10
2022-10-25T18:23:57.462Z,12.10
2022-10-25T18:26:25.627Z,12.10
2022-10-25T18:28:53.780Z,12.10
2022-10-25T18:31:26.843Z,12.00
2022-10-25T18:33:56.244Z,11.90
2022-10-25T18:36:27.370Z,11.90
2022-10-25T18:38:56.934Z,11.80
2022-10-25T18:41:28.236Z,11.90
2022-10-25T18:43:57.065Z,11.90
2022-10-25T18:46:30.727Z,11.90
2022-10-25T18:48:59.185Z,11.90
2022-10-25T18:51:28.939Z,11.90
2022-10-25T18:53:59.672Z,11.80
2022-10-25T18:56:28.666Z,11.80
2022-10-25T18:58:58.947Z,11.80
2022-10-25T19:01:32.780Z,11.80
2022-10-25T19:04:02.186Z,11.60
2022-10-25T19:06:30.575Z,11.60
2022-10-25T19:09:00.405Z,11.50
2022-10-25T19:11:28.537Z,11.50
2022-10-25T19:13:57.317Z,11.40
2022-10-25T19:16:25.881Z,11.40
2022-10-25T19:18:54.120Z,11.40
2022-10-25T19:21:22.497Z,11.40
2022-10-25T19:23:54.077Z,11.30
2022-10-25T19:26:23.944Z,11.20
2022-10-25T19:28:57.309Z,11.10
2022-10-25T19:31:28.616Z,11.10
2022-10-25T19:34:00.268Z,11.00
2022-10-25T19:36:28.524Z,11.00
2022-10-25T19:38:56.645Z,11.20
2022-10-25T19:41:26.688Z,11.30
2022-10-25T19:43:56.404Z,11.20
2022-10-25T19:46:24.791Z,11.20
2022-10-25T19:48:52.834Z,11.10
2022-10-25T19:51:21.536Z,11.10
2022-10-25T19:53:50.578Z,11.10
2022-10-25T19:56:21.491Z,11.20
2022-10-25T19:58:51.612Z,11.10
2022-10-25T20:01:23.204Z,11.00
2022-10-25T20:03:55.534Z,11.00
2022-10-25T20:06:26.459Z,10.90
2022-10-25T20:08:55.558Z,10.90
2022-10-25T20:11:26.305Z,10.90
2022-10-25T20:13:57.087Z,11.00
2022-10-25T20:16:26.144Z,11.00
2022-10-25T20:18:54.230Z,11.00
2022-10-25T20:21:23.954Z,11.00
2022-10-25T20:23:55.571Z,11.00
2022-10-25T20:26:25.300Z,11.10
2022-10-25T20:28:55.491Z,11.10
2022-10-25T20:31:24.634Z,11.10
2022-10-25T20:33:54.997Z,10.90
2022-10-25T20:36:23.673Z,10.90
2022-10-25T20:38:51.915Z,10.90
2022-10-25T20:41:21.987Z,10.90
2022-10-25T20:43:52.081Z,11.00
2022-10-25T20:46:22.955Z,11.00
2022-10-25T20:48:52.396Z,11.00
2022-10-25T20:51:21.250Z,10.90
2022-10-25T20:53:50.050Z,10.90
2022-10-25T20:56:19.112Z,11.00
2022-10-25T20:58:47.344Z,11.10
2022-10-25T21:01:15.382Z,10.90
2022-10-25T21:03:44.800Z,10.90
2022-10-25T21:06:14.328Z,10.80
2022-10-25T21:08:42.464Z,10.80
2022-10-25T21:11:13.380Z,10.80
2022-10-25T21:13:41.782Z,10.80
2022-10-25T21:16:11.673Z,10.80
2022-10-25T21:18:39.985Z,10.80
2022-10-25T21:21:10.894Z,10.90
2022-10-25T21:23:38.889Z,10.90
2022-10-25T21:26:09.531Z,10.80
2022-10-25T21:28:39.129Z,10.90
2022-10-25T21:31:09.225Z,11.00
2022-10-25T21:33:37.220Z,11.00
2022-10-25T21:36:07.114Z,11.00
2022-10-25T21:38:36.732Z,11.00
2022-10-25T21:41:12.871Z,11.00
2022-10-25T21:43:43.815Z,11.10
2022-10-25T21:46:12.116Z,11.20
2022-10-25T21:48:40.408Z,11.10
2022-10-25T21:51:08.705Z,11.10
2022-10-25T21:53:38.042Z,11.10
2022-10-25T21:56:07.781Z,11.10
2022-10-25T21:58:35.761Z,11.20
2022-10-25T22:01:04.151Z,11.20
2022-10-25T22:03:32.386Z,11.30
2022-10-25T22:06:00.314Z,11.30
2022-10-25T22:08:28.186Z,11.20
2022-10-25T22:11:02.670Z,11.30
2022-10-25T22:13:30.642Z,11.30
2022-10-25T22:16:00.576Z,11.30
2022-10-25T22:18:29.416Z,11.30
2022-10-25T22:20:59.319Z,11.30
2022-10-25T22:23:31.859Z,11.40
2022-10-25T22:26:05.487Z,11.30
2022-10-25T22:28:36.808Z,11.20
2022-10-25T22:31:09.803Z,11.40
2022-10-25T22:33:38.280Z,11.30
2022-10-25T22:36:08.151Z,11.20
2022-10-25T22:38:36.934Z,11.30
2022-10-25T22:41:08.473Z,11.30
2022-10-25T22:43:37.394Z,11.30
2022-10-25T22:46:07.558Z,11.30
2022-10-25T22:48:36.738Z,11.30
2022-10-25T22:51:05.477Z,11.40
2022-10-25T22:53:34.956Z,11.40
2022-10-25T22:56:05.152Z,11.40
2022-10-25T22:58:35.561Z,11.30
2022-10-25T23:01:06.155Z,11.30
2022-10-25T23:03:34.452Z,11.30
2022-10-25T23:06:03.208Z,11.40
2022-10-25T23:08:32.036Z,11.40
2022-10-25T23:11:01.861Z,11.40
2022-10-25T23:13:30.252Z,11.30
2022-10-25T23:16:04.783Z,11.30
2022-10-25T23:18:33.122Z,11.40
2022-10-25T23:21:02.409Z,11.40
2022-10-25T23:23:35.901Z,11.50
2022-10-25T23:26:04.169Z,11.50
2022-10-25T23:28:32.850Z,11.50
2022-10-25T23:31:06.246Z,11.50
2022-10-25T23:33:34.345Z,11.50
2022-10-25T23:36:03.696Z,11.50
2022-10-25T23:38:31.840Z,11.50
2022-10-25T23:41:02.573Z,11.50
2022-10-25T23:43:31.132Z,11.50
2022-10-25T23:45:59.199Z,11.60
2022-10-25T23:48:28.683Z,11.60
2022-10-25T23:50:58.449Z,11.60
2022-10-25T23:53:29.199Z,11.70
2022-10-25T23:55:57.488Z,11.70
2022-10-25T23:58:26.071Z,11.70
